sensor_id;sensor_type;location;lat;lon;timestamp;P1;durP1;ratioP1;P2;durP2;ratioP2
55210;SDS011;41082;52.822;6.666;2023-05-27T00:01:09;13.45;;;2.30;;
55210;SDS011;41082;52.822;6.666;2023-05-27T00:03:35;8.95;;;1.83;;
55210;SDS011;41082;52.822;6.666;2023-05-27T00:06:00;10.80;;;2.08;;
55210;SDS011;41082;52.822;6.666;2023-05-27T00:08:26;9.93;;;2.30;;
55210;SDS011;41082;52.822;6.666;2023-05-27T00:10:52;11.70;;;2.70;;
55210;SDS011;41082;52.822;6.666;2023-05-27T00:13:17;8.98;;;1.50;;
55210;SDS011;41082;52.822;6.666;2023-05-27T00:15:43;5.35;;;1.75;;
55210;SDS011;41082;52.822;6.666;2023-05-27T00:18:08;6.93;;;1.88;;
55210;SDS011;41082;52.822;6.666;2023-05-27T00:20:34;11.98;;;2.33;;
55210;SDS011;41082;52.822;6.666;2023-05-27T00:23:00;13.50;;;2.30;;
55210;SDS011;41082;52.822;6.666;2023-05-27T00:25:25;17.38;;;2.88;;
55210;SDS011;41082;52.822;6.666;2023-05-27T00:27:51;13.88;;;2.40;;
55210;SDS011;41082;52.822;6.666;2023-05-27T00:30:17;18.83;;;2.58;;
55210;SDS011;41082;52.822;6.666;2023-05-27T00:32:42;11.20;;;2.05;;
55210;SDS011;41082;52.822;6.666;2023-05-27T00:35:08;10.63;;;2.50;;
55210;SDS011;41082;52.822;6.666;2023-05-27T00:37:35;8.85;;;1.80;;
55210;SDS011;41082;52.822;6.666;2023-05-27T00:40:00;9.98;;;2.50;;
55210;SDS011;41082;52.822;6.666;2023-05-27T00:42:26;9.15;;;1.90;;
55210;SDS011;41082;52.822;6.666;2023-05-27T00:44:52;10.60;;;2.15;;
55210;SDS011;41082;52.822;6.666;2023-05-27T00:47:18;8.55;;;2.00;;
55210;SDS011;41082;52.822;6.666;2023-05-27T00:49:44;11.90;;;2.70;;
55210;SDS011;41082;52.822;6.666;2023-05-27T00:52:10;10.95;;;2.20;;
55210;SDS011;41082;52.822;6.666;2023-05-27T00:54:38;10.07;;;2.45;;
55210;SDS011;41082;52.822;6.666;2023-05-27T00:57:07;11.02;;;2.75;;
55210;SDS011;41082;52.822;6.666;2023-05-27T00:59:32;7.32;;;2.13;;
55210;SDS011;41082;52.822;6.666;2023-05-27T01:01:58;8.85;;;2.22;;
55210;SDS011;41082;52.822;6.666;2023-05-27T01:04:24;7.18;;;2.30;;
55210;SDS011;41082;52.822;6.666;2023-05-27T01:12:18;8.07;;;2.00;;
55210;SDS011;41082;52.822;6.666;2023-05-27T01:14:49;8.70;;;2.00;;
55210;SDS011;41082;52.822;6.666;2023-05-27T01:17:19;10.20;;;1.90;;
55210;SDS011;41082;52.822;6.666;2023-05-27T01:19:45;8.05;;;1.83;;
55210;SDS011;41082;52.822;6.666;2023-05-27T01:22:13;7.75;;;1.38;;
55210;SDS011;41082;52.822;6.666;2023-05-27T01:24:39;5.38;;;0.82;;
55210;SDS011;41082;52.822;6.666;2023-05-27T01:27:08;7.75;;;2.60;;
55210;SDS011;41082;52.822;6.666;2023-05-27T01:29:37;8.52;;;1.40;;
55210;SDS011;41082;52.822;6.666;2023-05-27T01:34:36;4.45;;;0.98;;
55210;SDS011;41082;52.822;6.666;2023-05-27T01:37:06;4.47;;;0.90;;
55210;SDS011;41082;52.822;6.666;2023-05-27T01:39:36;7.85;;;1.52;;
55210;SDS011;41082;52.822;6.666;2023-05-27T01:42:02;7.18;;;1.33;;
55210;SDS011;41082;52.822;6.666;2023-05-27T01:44:29;5.45;;;1.60;;
55210;SDS011;41082;52.822;6.666;2023-05-27T01:46:59;9.60;;;1.52;;
55210;SDS011;41082;52.822;6.666;2023-05-27T01:49:25;8.18;;;1.83;;
55210;SDS011;41082;52.822;6.666;2023-05-27T01:51:51;11.52;;;1.92;;
55210;SDS011;41082;52.822;6.666;2023-05-27T01:54:17;8.93;;;1.90;;
55210;SDS011;41082;52.822;6.666;2023-05-27T01:56:42;7.80;;;1.83;;
55210;SDS011;41082;52.822;6.666;2023-05-27T01:59:08;8.80;;;2.17;;
55210;SDS011;41082;52.822;6.666;2023-05-27T02:01:34;7.85;;;1.95;;
55210;SDS011;41082;52.822;6.666;2023-05-27T02:03:59;7.45;;;2.08;;
55210;SDS011;41082;52.822;6.666;2023-05-27T02:06:26;8.98;;;2.35;;
55210;SDS011;41082;52.822;6.666;2023-05-27T02:08:51;12.07;;;1.90;;
55210;SDS011;41082;52.822;6.666;2023-05-27T02:11:17;8.48;;;2.15;;
55210;SDS011;41082;52.822;6.666;2023-05-27T02:13:42;7.20;;;2.00;;
55210;SDS011;41082;52.822;6.666;2023-05-27T02:16:08;8.82;;;1.83;;
55210;SDS011;41082;52.822;6.666;2023-05-27T02:18:34;6.85;;;1.80;;
55210;SDS011;41082;52.822;6.666;2023-05-27T02:21:00;7.50;;;1.70;;
55210;SDS011;41082;52.822;6.666;2023-05-27T02:23:30;13.50;;;2.15;;
55210;SDS011;41082;52.822;6.666;2023-05-27T02:25:56;12.60;;;2.03;;
55210;SDS011;41082;52.822;6.666;2023-05-27T02:28:22;5.78;;;1.77;;
55210;SDS011;41082;52.822;6.666;2023-05-27T02:30:48;7.50;;;1.95;;
55210;SDS011;41082;52.822;6.666;2023-05-27T02:33:13;10.52;;;2.20;;
55210;SDS011;41082;52.822;6.666;2023-05-27T02:35:39;7.50;;;1.83;;
55210;SDS011;41082;52.822;6.666;2023-05-27T02:38:05;8.52;;;1.90;;
55210;SDS011;41082;52.822;6.666;2023-05-27T02:40:30;9.13;;;2.20;;
55210;SDS011;41082;52.822;6.666;2023-05-27T02:42:56;7.75;;;2.05;;
55210;SDS011;41082;52.822;6.666;2023-05-27T02:45:22;15.38;;;2.40;;
55210;SDS011;41082;52.822;6.666;2023-05-27T02:47:48;7.43;;;2.00;;
55210;SDS011;41082;52.822;6.666;2023-05-27T02:50:14;9.02;;;2.33;;
55210;SDS011;41082;52.822;6.666;2023-05-27T02:52:39;11.50;;;2.25;;
55210;SDS011;41082;52.822;6.666;2023-05-27T02:55:05;13.00;;;2.75;;
55210;SDS011;41082;52.822;6.666;2023-05-27T02:57:32;7.47;;;2.20;;
55210;SDS011;41082;52.822;6.666;2023-05-27T02:59:57;9.43;;;2.10;;
55210;SDS011;41082;52.822;6.666;2023-05-27T03:02:23;8.85;;;2.10;;
55210;SDS011;41082;52.822;6.666;2023-05-27T03:04:48;9.18;;;2.25;;
55210;SDS011;41082;52.822;6.666;2023-05-27T03:07:14;8.38;;;1.88;;
55210;SDS011;41082;52.822;6.666;2023-05-27T03:09:40;6.68;;;2.30;;
55210;SDS011;41082;52.822;6.666;2023-05-27T03:12:06;7.15;;;2.25;;
55210;SDS011;41082;52.822;6.666;2023-05-27T03:14:31;7.60;;;2.10;;
55210;SDS011;41082;52.822;6.666;2023-05-27T03:16:57;15.63;;;3.03;;
55210;SDS011;41082;52.822;6.666;2023-05-27T03:19:23;8.23;;;2.92;;
55210;SDS011;41082;52.822;6.666;2023-05-27T03:21:49;8.25;;;2.22;;
55210;SDS011;41082;52.822;6.666;2023-05-27T03:24:16;8.18;;;1.70;;
55210;SDS011;41082;52.822;6.666;2023-05-27T03:26:41;9.60;;;2.22;;
55210;SDS011;41082;52.822;6.666;2023-05-27T03:29:07;6.97;;;2.35;;
55210;SDS011;41082;52.822;6.666;2023-05-27T03:31:32;10.18;;;2.20;;
55210;SDS011;41082;52.822;6.666;2023-05-27T03:33:58;5.55;;;1.70;;
55210;SDS011;41082;52.822;6.666;2023-05-27T03:36:24;6.50;;;2.30;;
55210;SDS011;41082;52.822;6.666;2023-05-27T03:38:49;5.75;;;1.70;;
55210;SDS011;41082;52.822;6.666;2023-05-27T03:41:15;8.55;;;2.50;;
55210;SDS011;41082;52.822;6.666;2023-05-27T03:43:41;8.15;;;2.13;;
55210;SDS011;41082;52.822;6.666;2023-05-27T03:46:06;6.80;;;2.10;;
55210;SDS011;41082;52.822;6.666;2023-05-27T03:48:32;8.35;;;2.53;;
55210;SDS011;41082;52.822;6.666;2023-05-27T03:50:58;7.82;;;1.83;;
55210;SDS011;41082;52.822;6.666;2023-05-27T03:53:24;8.65;;;2.33;;
55210;SDS011;41082;52.822;6.666;2023-05-27T03:55:49;8.00;;;2.45;;
55210;SDS011;41082;52.822;6.666;2023-05-27T03:58:15;11.07;;;2.78;;
55210;SDS011;41082;52.822;6.666;2023-05-27T04:00:41;10.60;;;2.78;;
55210;SDS011;41082;52.822;6.666;2023-05-27T04:03:07;13.90;;;2.97;;
55210;SDS011;41082;52.822;6.666;2023-05-27T04:05:33;10.93;;;3.38;;
55210;SDS011;41082;52.822;6.666;2023-05-27T04:08:00;10.32;;;2.85;;
55210;SDS011;41082;52.822;6.666;2023-05-27T04:10:27;11.27;;;3.15;;
55210;SDS011;41082;52.822;6.666;2023-05-27T04:12:52;13.98;;;3.45;;
55210;SDS011;41082;52.822;6.666;2023-05-27T04:15:18;14.23;;;3.10;;
55210;SDS011;41082;52.822;6.666;2023-05-27T04:17:43;10.38;;;2.90;;
55210;SDS011;41082;52.822;6.666;2023-05-27T04:20:09;14.48;;;3.70;;
55210;SDS011;41082;52.822;6.666;2023-05-27T04:22:39;15.52;;;3.38;;
55210;SDS011;41082;52.822;6.666;2023-05-27T04:25:06;13.35;;;2.65;;
55210;SDS011;41082;52.822;6.666;2023-05-27T04:27:32;16.75;;;3.97;;
55210;SDS011;41082;52.822;6.666;2023-05-27T04:29:58;19.13;;;3.33;;
55210;SDS011;41082;52.822;6.666;2023-05-27T04:32:24;14.60;;;4.22;;
55210;SDS011;41082;52.822;6.666;2023-05-27T04:34:52;18.52;;;3.50;;
55210;SDS011;41082;52.822;6.666;2023-05-27T04:37:18;19.98;;;3.42;;
55210;SDS011;41082;52.822;6.666;2023-05-27T04:39:45;17.45;;;3.63;;
55210;SDS011;41082;52.822;6.666;2023-05-27T04:42:11;14.98;;;3.47;;
55210;SDS011;41082;52.822;6.666;2023-05-27T04:44:38;21.27;;;4.20;;
55210;SDS011;41082;52.822;6.666;2023-05-27T04:47:04;19.80;;;4.30;;
55210;SDS011;41082;52.822;6.666;2023-05-27T04:49:30;15.18;;;3.90;;
55210;SDS011;41082;52.822;6.666;2023-05-27T04:51:56;11.43;;;3.17;;
55210;SDS011;41082;52.822;6.666;2023-05-27T04:54:23;15.60;;;4.50;;
55210;SDS011;41082;52.822;6.666;2023-05-27T04:56:48;14.40;;;3.13;;
55210;SDS011;41082;52.822;6.666;2023-05-27T04:59:17;12.65;;;3.08;;
55210;SDS011;41082;52.822;6.666;2023-05-27T05:01:45;25.70;;;3.78;;
55210;SDS011;41082;52.822;6.666;2023-05-27T05:04:24;24.17;;;5.05;;
55210;SDS011;41082;52.822;6.666;2023-05-27T05:06:50;19.13;;;3.67;;
55210;SDS011;41082;52.822;6.666;2023-05-27T05:09:17;23.70;;;3.63;;
55210;SDS011;41082;52.822;6.666;2023-05-27T05:11:42;23.10;;;3.75;;
55210;SDS011;41082;52.822;6.666;2023-05-27T05:14:08;30.83;;;5.05;;
55210;SDS011;41082;52.822;6.666;2023-05-27T05:16:34;17.05;;;3.90;;
55210;SDS011;41082;52.822;6.666;2023-05-27T05:18:59;17.75;;;4.00;;
55210;SDS011;41082;52.822;6.666;2023-05-27T05:21:25;25.33;;;4.22;;
55210;SDS011;41082;52.822;6.666;2023-05-27T05:23:51;17.60;;;3.90;;
55210;SDS011;41082;52.822;6.666;2023-05-27T05:26:17;18.52;;;4.07;;
55210;SDS011;41082;52.822;6.666;2023-05-27T05:28:42;24.52;;;4.05;;
55210;SDS011;41082;52.822;6.666;2023-05-27T05:31:08;23.30;;;3.70;;
55210;SDS011;41082;52.822;6.666;2023-05-27T05:33:33;18.15;;;3.58;;
55210;SDS011;41082;52.822;6.666;2023-05-27T05:35:59;23.45;;;3.97;;
55210;SDS011;41082;52.822;6.666;2023-05-27T05:38:25;14.73;;;3.42;;
55210;SDS011;41082;52.822;6.666;2023-05-27T05:40:50;20.30;;;3.70;;
55210;SDS011;41082;52.822;6.666;2023-05-27T05:43:17;24.20;;;3.65;;
55210;SDS011;41082;52.822;6.666;2023-05-27T05:45:43;16.27;;;2.85;;
55210;SDS011;41082;52.822;6.666;2023-05-27T05:48:09;16.05;;;3.13;;
55210;SDS011;41082;52.822;6.666;2023-05-27T05:50:35;17.30;;;3.35;;
55210;SDS011;41082;52.822;6.666;2023-05-27T05:53:00;21.33;;;3.10;;
55210;SDS011;41082;52.822;6.666;2023-05-27T05:55:26;19.73;;;3.42;;
55210;SDS011;41082;52.822;6.666;2023-05-27T05:57:51;15.02;;;2.85;;
55210;SDS011;41082;52.822;6.666;2023-05-27T06:00:17;17.05;;;2.70;;
55210;SDS011;41082;52.822;6.666;2023-05-27T06:02:43;42.28;;;4.00;;
55210;SDS011;41082;52.822;6.666;2023-05-27T06:05:09;22.15;;;4.13;;
55210;SDS011;41082;52.822;6.666;2023-05-27T06:07:38;17.58;;;3.40;;
55210;SDS011;41082;52.822;6.666;2023-05-27T06:10:03;21.48;;;2.85;;
55210;SDS011;41082;52.822;6.666;2023-05-27T06:12:29;16.15;;;3.35;;
55210;SDS011;41082;52.822;6.666;2023-05-27T06:14:55;18.23;;;3.20;;
55210;SDS011;41082;52.822;6.666;2023-05-27T06:17:20;24.00;;;3.50;;
55210;SDS011;41082;52.822;6.666;2023-05-27T06:19:46;15.95;;;2.95;;
55210;SDS011;41082;52.822;6.666;2023-05-27T06:22:12;14.48;;;2.97;;
55210;SDS011;41082;52.822;6.666;2023-05-27T06:24:37;20.65;;;2.53;;
55210;SDS011;41082;52.822;6.666;2023-05-27T06:27:03;19.50;;;3.40;;
55210;SDS011;41082;52.822;6.666;2023-05-27T06:29:29;13.35;;;2.47;;
55210;SDS011;41082;52.822;6.666;2023-05-27T06:31:54;22.42;;;3.70;;
55210;SDS011;41082;52.822;6.666;2023-05-27T06:34:20;11.35;;;1.85;;
55210;SDS011;41082;52.822;6.666;2023-05-27T06:36:45;17.20;;;3.22;;
55210;SDS011;41082;52.822;6.666;2023-05-27T06:39:14;17.05;;;3.00;;
55210;SDS011;41082;52.822;6.666;2023-05-27T06:41:40;13.85;;;3.25;;
55210;SDS011;41082;52.822;6.666;2023-05-27T06:44:06;15.57;;;2.53;;
55210;SDS011;41082;52.822;6.666;2023-05-27T06:46:32;13.15;;;2.75;;
55210;SDS011;41082;52.822;6.666;2023-05-27T06:48:57;18.88;;;2.85;;
55210;SDS011;41082;52.822;6.666;2023-05-27T06:51:23;14.88;;;2.70;;
55210;SDS011;41082;52.822;6.666;2023-05-27T06:53:48;11.23;;;2.17;;
55210;SDS011;41082;52.822;6.666;2023-05-27T06:56:14;15.40;;;2.17;;
55210;SDS011;41082;52.822;6.666;2023-05-27T06:58:40;14.55;;;2.42;;
55210;SDS011;41082;52.822;6.666;2023-05-27T07:01:06;20.88;;;3.90;;
55210;SDS011;41082;52.822;6.666;2023-05-27T07:03:32;17.40;;;3.00;;
55210;SDS011;41082;52.822;6.666;2023-05-27T07:05:58;16.80;;;2.65;;
55210;SDS011;41082;52.822;6.666;2023-05-27T07:08:24;16.35;;;2.97;;
55210;SDS011;41082;52.822;6.666;2023-05-27T07:10:49;12.57;;;2.72;;
55210;SDS011;41082;52.822;6.666;2023-05-27T07:13:15;16.25;;;2.80;;
55210;SDS011;41082;52.822;6.666;2023-05-27T07:15:41;21.88;;;4.05;;
55210;SDS011;41082;52.822;6.666;2023-05-27T07:18:07;19.90;;;3.28;;
55210;SDS011;41082;52.822;6.666;2023-05-27T07:20:33;13.13;;;3.60;;
55210;SDS011;41082;52.822;6.666;2023-05-27T07:22:59;15.32;;;2.88;;
55210;SDS011;41082;52.822;6.666;2023-05-27T07:25:25;11.95;;;3.15;;
55210;SDS011;41082;52.822;6.666;2023-05-27T07:27:51;18.38;;;3.20;;
55210;SDS011;41082;52.822;6.666;2023-05-27T07:30:17;20.02;;;3.13;;
55210;SDS011;41082;52.822;6.666;2023-05-27T07:32:42;16.80;;;3.00;;
55210;SDS011;41082;52.822;6.666;2023-05-27T07:35:08;17.27;;;3.33;;
55210;SDS011;41082;52.822;6.666;2023-05-27T07:37:34;18.67;;;3.53;;
55210;SDS011;41082;52.822;6.666;2023-05-27T07:39:59;24.52;;;3.65;;
55210;SDS011;41082;52.822;6.666;2023-05-27T07:42:25;23.75;;;3.80;;
55210;SDS011;41082;52.822;6.666;2023-05-27T07:44:50;13.98;;;3.08;;
55210;SDS011;41082;52.822;6.666;2023-05-27T07:47:16;17.40;;;3.58;;
55210;SDS011;41082;52.822;6.666;2023-05-27T07:49:42;15.48;;;3.22;;
55210;SDS011;41082;52.822;6.666;2023-05-27T07:52:07;16.00;;;3.63;;
55210;SDS011;41082;52.822;6.666;2023-05-27T07:54:35;16.75;;;3.25;;
55210;SDS011;41082;52.822;6.666;2023-05-27T07:57:00;13.73;;;2.60;;
55210;SDS011;41082;52.822;6.666;2023-05-27T07:59:26;12.82;;;3.38;;
55210;SDS011;41082;52.822;6.666;2023-05-27T08:01:52;14.80;;;3.28;;
55210;SDS011;41082;52.822;6.666;2023-05-27T08:04:17;19.17;;;3.78;;
55210;SDS011;41082;52.822;6.666;2023-05-27T08:06:43;17.33;;;3.65;;
55210;SDS011;41082;52.822;6.666;2023-05-27T08:09:08;14.63;;;3.15;;
55210;SDS011;41082;52.822;6.666;2023-05-27T08:11:34;14.35;;;3.75;;
55210;SDS011;41082;52.822;6.666;2023-05-27T08:13:59;15.25;;;3.30;;
55210;SDS011;41082;52.822;6.666;2023-05-27T08:16:25;17.13;;;3.75;;
55210;SDS011;41082;52.822;6.666;2023-05-27T08:18:51;16.30;;;3.53;;
55210;SDS011;41082;52.822;6.666;2023-05-27T08:21:16;15.13;;;3.67;;
55210;SDS011;41082;52.822;6.666;2023-05-27T08:23:42;13.52;;;3.30;;
55210;SDS011;41082;52.822;6.666;2023-05-27T08:26:08;16.80;;;3.30;;
55210;SDS011;41082;52.822;6.666;2023-05-27T08:28:34;16.30;;;4.18;;
55210;SDS011;41082;52.822;6.666;2023-05-27T08:31:02;18.35;;;3.50;;
55210;SDS011;41082;52.822;6.666;2023-05-27T08:33:28;19.13;;;4.53;;
55210;SDS011;41082;52.822;6.666;2023-05-27T08:35:55;12.85;;;3.92;;
55210;SDS011;41082;52.822;6.666;2023-05-27T08:38:21;12.57;;;3.55;;
55210;SDS011;41082;52.822;6.666;2023-05-27T08:40:47;15.60;;;3.85;;
55210;SDS011;41082;52.822;6.666;2023-05-27T08:43:13;17.20;;;3.63;;
55210;SDS011;41082;52.822;6.666;2023-05-27T08:45:39;11.70;;;3.45;;
55210;SDS011;41082;52.822;6.666;2023-05-27T08:48:06;13.77;;;3.80;;
55210;SDS011;41082;52.822;6.666;2023-05-27T08:50:33;14.65;;;3.80;;
55210;SDS011;41082;52.822;6.666;2023-05-27T08:52:59;15.43;;;3.42;;
55210;SDS011;41082;52.822;6.666;2023-05-27T08:55:27;15.20;;;3.70;;
55210;SDS011;41082;52.822;6.666;2023-05-27T08:57:55;17.27;;;3.75;;
55210;SDS011;41082;52.822;6.666;2023-05-27T09:00:22;12.25;;;3.50;;
55210;SDS011;41082;52.822;6.666;2023-05-27T09:02:49;13.57;;;2.97;;
55210;SDS011;41082;52.822;6.666;2023-05-27T09:05:15;14.63;;;3.10;;
55210;SDS011;41082;52.822;6.666;2023-05-27T09:07:41;14.75;;;3.47;;
55210;SDS011;41082;52.822;6.666;2023-05-27T09:10:08;15.30;;;3.40;;
55210;SDS011;41082;52.822;6.666;2023-05-27T09:12:34;11.27;;;3.05;;
55210;SDS011;41082;52.822;6.666;2023-05-27T09:15:01;14.18;;;3.50;;
55210;SDS011;41082;52.822;6.666;2023-05-27T09:17:28;16.42;;;3.50;;
55210;SDS011;41082;52.822;6.666;2023-05-27T09:19:55;12.43;;;3.97;;
55210;SDS011;41082;52.822;6.666;2023-05-27T09:22:24;16.52;;;4.18;;
55210;SDS011;41082;52.822;6.666;2023-05-27T09:24:54;12.95;;;3.80;;
55210;SDS011;41082;52.822;6.666;2023-05-27T09:27:27;12.40;;;3.58;;
55210;SDS011;41082;52.822;6.666;2023-05-27T09:29:54;13.80;;;3.60;;
55210;SDS011;41082;52.822;6.666;2023-05-27T09:32:24;14.40;;;3.45;;
55210;SDS011;41082;52.822;6.666;2023-05-27T09:34:56;11.32;;;3.03;;
55210;SDS011;41082;52.822;6.666;2023-05-27T09:37:29;13.68;;;3.30;;
55210;SDS011;41082;52.822;6.666;2023-05-27T09:39:59;12.60;;;3.13;;
55210;SDS011;41082;52.822;6.666;2023-05-27T09:42:46;15.38;;;2.80;;
55210;SDS011;41082;52.822;6.666;2023-05-27T09:45:16;19.60;;;4.72;;
55210;SDS011;41082;52.822;6.666;2023-05-27T09:47:49;13.57;;;3.60;;
55210;SDS011;41082;52.822;6.666;2023-05-27T09:50:16;17.77;;;3.50;;
55210;SDS011;41082;52.822;6.666;2023-05-27T09:52:43;14.98;;;3.65;;
55210;SDS011;41082;52.822;6.666;2023-05-27T09:55:10;15.07;;;3.67;;
55210;SDS011;41082;52.822;6.666;2023-05-27T09:57:37;12.80;;;3.17;;
55210;SDS011;41082;52.822;6.666;2023-05-27T10:00:05;14.48;;;3.10;;
55210;SDS011;41082;52.822;6.666;2023-05-27T10:02:42;14.02;;;3.35;;
55210;SDS011;41082;52.822;6.666;2023-05-27T10:05:12;13.07;;;3.63;;
55210;SDS011;41082;52.822;6.666;2023-05-27T10:07:42;13.30;;;3.38;;
55210;SDS011;41082;52.822;6.666;2023-05-27T10:10:09;16.63;;;4.43;;
55210;SDS011;41082;52.822;6.666;2023-05-27T10:12:37;16.42;;;3.72;;
55210;SDS011;41082;52.822;6.666;2023-05-27T10:15:04;15.43;;;3.65;;
55210;SDS011;41082;52.822;6.666;2023-05-27T10:17:47;10.25;;;3.05;;
55210;SDS011;41082;52.822;6.666;2023-05-27T10:23:11;16.63;;;3.58;;
55210;SDS011;41082;52.822;6.666;2023-05-27T10:25:39;13.57;;;3.53;;
55210;SDS011;41082;52.822;6.666;2023-05-27T10:28:05;16.40;;;3.83;;
55210;SDS011;41082;52.822;6.666;2023-05-27T10:30:45;15.95;;;3.25;;
55210;SDS011;41082;52.822;6.666;2023-05-27T10:33:12;12.38;;;3.53;;
55210;SDS011;41082;52.822;6.666;2023-05-27T10:35:38;14.20;;;3.72;;
55210;SDS011;41082;52.822;6.666;2023-05-27T10:38:17;13.27;;;3.38;;
55210;SDS011;41082;52.822;6.666;2023-05-27T10:40:46;12.98;;;3.47;;
55210;SDS011;41082;52.822;6.666;2023-05-27T10:43:18;9.88;;;3.08;;
55210;SDS011;41082;52.822;6.666;2023-05-27T10:45:44;14.32;;;3.88;;
55210;SDS011;41082;52.822;6.666;2023-05-27T10:48:20;12.52;;;3.83;;
55210;SDS011;41082;52.822;6.666;2023-05-27T10:50:52;17.55;;;4.30;;
55210;SDS011;41082;52.822;6.666;2023-05-27T10:53:21;12.05;;;3.65;;
55210;SDS011;41082;52.822;6.666;2023-05-27T10:55:47;10.27;;;3.13;;
55210;SDS011;41082;52.822;6.666;2023-05-27T10:58:17;14.10;;;4.50;;
55210;SDS011;41082;52.822;6.666;2023-05-27T11:00:48;14.88;;;4.35;;
55210;SDS011;41082;52.822;6.666;2023-05-27T11:03:27;14.18;;;4.03;;
55210;SDS011;41082;52.822;6.666;2023-05-27T11:06:03;12.50;;;3.55;;
55210;SDS011;41082;52.822;6.666;2023-05-27T11:08:30;12.90;;;3.40;;
55210;SDS011;41082;52.822;6.666;2023-05-27T11:11:00;11.55;;;3.50;;
55210;SDS011;41082;52.822;6.666;2023-05-27T11:13:38;14.30;;;4.27;;
55210;SDS011;41082;52.822;6.666;2023-05-27T11:16:07;11.52;;;3.17;;
55210;SDS011;41082;52.822;6.666;2023-05-27T11:18:37;12.52;;;3.20;;
55210;SDS011;41082;52.822;6.666;2023-05-27T11:21:07;14.63;;;4.10;;
55210;SDS011;41082;52.822;6.666;2023-05-27T11:23:41;14.27;;;3.75;;
55210;SDS011;41082;52.822;6.666;2023-05-27T11:28:46;9.50;;;3.20;;
55210;SDS011;41082;52.822;6.666;2023-05-27T11:31:16;16.40;;;3.88;;
55210;SDS011;41082;52.822;6.666;2023-05-27T11:33:42;11.52;;;3.25;;
55210;SDS011;41082;52.822;6.666;2023-05-27T11:36:13;11.13;;;3.45;;
55210;SDS011;41082;52.822;6.666;2023-05-27T11:41:12;13.23;;;3.10;;
55210;SDS011;41082;52.822;6.666;2023-05-27T11:43:46;12.10;;;3.65;;
55210;SDS011;41082;52.822;6.666;2023-05-27T11:46:21;12.93;;;3.08;;
55210;SDS011;41082;52.822;6.666;2023-05-27T11:48:47;13.35;;;3.63;;
55210;SDS011;41082;52.822;6.666;2023-05-27T11:51:13;11.70;;;4.35;;
55210;SDS011;41082;52.822;6.666;2023-05-27T11:53:45;15.90;;;3.70;;
55210;SDS011;41082;52.822;6.666;2023-05-27T11:56:11;11.65;;;3.35;;
55210;SDS011;41082;52.822;6.666;2023-05-27T11:58:37;11.35;;;3.60;;
55210;SDS011;41082;52.822;6.666;2023-05-27T12:01:05;14.93;;;3.42;;
55210;SDS011;41082;52.822;6.666;2023-05-27T12:03:32;12.70;;;3.17;;
55210;SDS011;41082;52.822;6.666;2023-05-27T12:05:59;11.77;;;3.20;;
55210;SDS011;41082;52.822;6.666;2023-05-27T12:08:24;11.25;;;3.28;;
55210;SDS011;41082;52.822;6.666;2023-05-27T12:10:50;10.35;;;3.50;;
55210;SDS011;41082;52.822;6.666;2023-05-27T12:13:21;10.77;;;3.38;;
55210;SDS011;41082;52.822;6.666;2023-05-27T12:15:48;12.85;;;3.47;;
55210;SDS011;41082;52.822;6.666;2023-05-27T12:18:14;12.93;;;3.22;;
55210;SDS011;41082;52.822;6.666;2023-05-27T12:20:40;21.52;;;4.13;;
55210;SDS011;41082;52.822;6.666;2023-05-27T12:23:06;13.90;;;3.30;;
55210;SDS011;41082;52.822;6.666;2023-05-27T12:25:32;17.80;;;4.22;;
55210;SDS011;41082;52.822;6.666;2023-05-27T12:27:57;12.80;;;4.05;;
55210;SDS011;41082;52.822;6.666;2023-05-27T12:30:23;12.60;;;3.53;;
55210;SDS011;41082;52.822;6.666;2023-05-27T12:32:48;10.23;;;3.50;;
55210;SDS011;41082;52.822;6.666;2023-05-27T12:35:14;11.50;;;3.22;;
55210;SDS011;41082;52.822;6.666;2023-05-27T12:37:40;12.13;;;3.65;;
55210;SDS011;41082;52.822;6.666;2023-05-27T12:40:06;10.77;;;3.13;;
55210;SDS011;41082;52.822;6.666;2023-05-27T12:42:34;11.23;;;3.13;;
55210;SDS011;41082;52.822;6.666;2023-05-27T12:45:00;12.65;;;3.22;;
55210;SDS011;41082;52.822;6.666;2023-05-27T12:47:26;9.75;;;2.97;;
55210;SDS011;41082;52.822;6.666;2023-05-27T12:49:51;11.32;;;3.38;;
55210;SDS011;41082;52.822;6.666;2023-05-27T12:52:17;10.00;;;3.10;;
55210;SDS011;41082;52.822;6.666;2023-05-27T12:54:42;11.05;;;3.00;;
55210;SDS011;41082;52.822;6.666;2023-05-27T12:57:08;10.90;;;3.15;;
55210;SDS011;41082;52.822;6.666;2023-05-27T12:59:34;13.90;;;3.10;;
55210;SDS011;41082;52.822;6.666;2023-05-27T13:02:00;8.52;;;2.95;;
55210;SDS011;41082;52.822;6.666;2023-05-27T13:04:25;13.27;;;3.08;;
55210;SDS011;41082;52.822;6.666;2023-05-27T13:06:51;10.63;;;3.65;;
55210;SDS011;41082;52.822;6.666;2023-05-27T13:09:16;11.43;;;2.95;;
55210;SDS011;41082;52.822;6.666;2023-05-27T13:11:43;11.48;;;3.08;;
55210;SDS011;41082;52.822;6.666;2023-05-27T13:14:09;10.85;;;3.05;;
55210;SDS011;41082;52.822;6.666;2023-05-27T13:16:35;12.68;;;3.65;;
55210;SDS011;41082;52.822;6.666;2023-05-27T13:19:00;10.23;;;3.10;;
55210;SDS011;41082;52.822;6.666;2023-05-27T13:21:26;11.32;;;2.88;;
55210;SDS011;41082;52.822;6.666;2023-05-27T13:23:53;10.20;;;2.78;;
55210;SDS011;41082;52.822;6.666;2023-05-27T13:26:19;10.38;;;2.97;;
55210;SDS011;41082;52.822;6.666;2023-05-27T13:28:45;11.38;;;2.55;;
55210;SDS011;41082;52.822;6.666;2023-05-27T13:31:12;10.68;;;2.92;;
55210;SDS011;41082;52.822;6.666;2023-05-27T13:33:38;12.27;;;3.40;;
55210;SDS011;41082;52.822;6.666;2023-05-27T13:36:05;12.40;;;3.13;;
55210;SDS011;41082;52.822;6.666;2023-05-27T13:38:31;13.15;;;3.42;;
55210;SDS011;41082;52.822;6.666;2023-05-27T13:40:57;9.70;;;3.13;;
55210;SDS011;41082;52.822;6.666;2023-05-27T13:43:24;9.27;;;3.03;;
55210;SDS011;41082;52.822;6.666;2023-05-27T13:45:50;11.05;;;3.05;;
55210;SDS011;41082;52.822;6.666;2023-05-27T13:48:16;12.82;;;3.17;;
55210;SDS011;41082;52.822;6.666;2023-05-27T13:50:42;12.82;;;3.30;;
55210;SDS011;41082;52.822;6.666;2023-05-27T13:53:07;10.38;;;2.88;;
55210;SDS011;41082;52.822;6.666;2023-05-27T13:55:33;14.88;;;3.20;;
55210;SDS011;41082;52.822;6.666;2023-05-27T13:57:58;11.15;;;3.30;;
55210;SDS011;41082;52.822;6.666;2023-05-27T14:00:24;9.85;;;2.80;;
55210;SDS011;41082;52.822;6.666;2023-05-27T14:02:50;8.95;;;2.42;;
55210;SDS011;41082;52.822;6.666;2023-05-27T14:05:16;9.35;;;3.42;;
55210;SDS011;41082;52.822;6.666;2023-05-27T14:07:42;12.70;;;2.42;;
55210;SDS011;41082;52.822;6.666;2023-05-27T14:10:09;7.43;;;2.47;;
55210;SDS011;41082;52.822;6.666;2023-05-27T14:12:35;12.75;;;3.92;;
55210;SDS011;41082;52.822;6.666;2023-05-27T14:15:02;8.73;;;2.45;;
55210;SDS011;41082;52.822;6.666;2023-05-27T14:17:28;11.13;;;2.35;;
55210;SDS011;41082;52.822;6.666;2023-05-27T14:19:54;9.48;;;2.05;;
55210;SDS011;41082;52.822;6.666;2023-05-27T14:22:19;12.68;;;3.25;;
55210;SDS011;41082;52.822;6.666;2023-05-27T14:24:45;14.57;;;3.63;;
55210;SDS011;41082;52.822;6.666;2023-05-27T14:27:11;11.07;;;3.20;;
55210;SDS011;41082;52.822;6.666;2023-05-27T14:29:36;6.90;;;2.67;;
55210;SDS011;41082;52.822;6.666;2023-05-27T14:32:02;11.15;;;3.22;;
55210;SDS011;41082;52.822;6.666;2023-05-27T14:34:28;8.75;;;3.08;;
55210;SDS011;41082;52.822;6.666;2023-05-27T14:36:53;11.75;;;3.03;;
55210;SDS011;41082;52.822;6.666;2023-05-27T14:39:19;9.95;;;2.63;;
55210;SDS011;41082;52.822;6.666;2023-05-27T14:41:45;8.73;;;2.72;;
55210;SDS011;41082;52.822;6.666;2023-05-27T14:44:10;11.48;;;3.05;;
55210;SDS011;41082;52.822;6.666;2023-05-27T14:46:37;9.80;;;2.45;;
55210;SDS011;41082;52.822;6.666;2023-05-27T14:49:02;10.32;;;3.05;;
55210;SDS011;41082;52.822;6.666;2023-05-27T14:51:28;9.13;;;2.63;;